Terminal Aerodrome Forecast
Issued by NWS

Home | Current Version | Previous Version | Text Only | Print | Product List | Glossary On
Versions: 1 2 3 4 5 6 7 8 9 10 11 12 13 14 15 16 17 18 19 20 21 22 23
000
FTUS43 KGRR 092340
TAFAZO
TAF
KAZO 092340Z 1000/1024 26006KT P6SM -SN OVC020
      TEMPO 1002/1005 1SM -SN BR OVC012
     FM100500 25008KT 5SM -SN BR OVC035
      TEMPO 1005/1008 2SM -SN OVC025
     FM100800 26008KT 1 1/2SM -SN BR VV009
     FM102000 23009KT 3SM -SN BR OVC025=

USA.gov is the U.S. government's official web portal to all federal, state and local government web resources and services.